Time;durP1;ratioP1;P1;durP2;ratioP2;P2;SDS_P1;SDS_P2;PMS_P1;PMS_P2;Temp;Humidity;BMP_temperature;BMP_pressure;BME280_temperature;BME280_humidity;BME280_pressure;Samples;Min_cycle;Max_cycle;Signal;HPM_P1;HPM_P2
2022/10/08 05:31:04;;;;;;;8.43;1.73;;;16.40;73.40;;;;;;5069883;24;20058;-78
2022/10/08 05:33:29;;;;;;;6.82;1.52;;;16.40;72.70;;;;;;4812939;29;20054;-81
2022/10/08 05:35:55;;;;;;;7.72;1.45;;;16.40;71.30;;;;;;4827834;29;20053;-75
2022/10/08 05:38:21;;;;;;;6.93;1.30;;;16.40;70.00;;;;;;4827820;29;20057;-75
2022/10/08 05:40:47;;;;;;;13.60;2.20;;;16.40;69.50;;;;;;4843348;29;20129;-74
2022/10/08 05:43:12;;;;;;;8.75;1.67;;;16.30;69.00;;;;;;4844218;29;20057;-74
2022/10/08 05:45:38;;;;;;;9.43;1.63;;;16.30;68.70;;;;;;4841766;29;20050;-79
2022/10/08 05:48:04;;;;;;;13.40;1.63;;;16.20;68.70;;;;;;4811678;29;20137;-75
2022/10/08 05:50:29;;;;;;;7.22;1.55;;;16.20;69.10;;;;;;4844916;29;20054;-74
2022/10/08 05:52:55;;;;;;;7.65;1.45;;;16.10;69.90;;;;;;4844232;29;20065;-75
2022/10/08 05:55:21;;;;;;;8.73;1.38;;;16.10;70.40;;;;;;4828343;29;20054;-75
2022/10/08 05:57:47;;;;;;;8.90;1.25;;;16.00;70.80;;;;;;4827900;29;20058;-74
2022/10/08 06:00:13;;;;;;;5.80;1.88;;;16.00;71.10;;;;;;4844051;29;20061;-76
2022/10/08 06:02:39;;;;;;;5.55;1.55;;;16.00;71.40;;;;;;4843057;29;20442;-74
2022/10/08 06:05:05;;;;;;;5.30;1.10;;;16.00;71.60;;;;;;4843438;29;20060;-75
2022/10/08 06:07:30;;;;;;;6.15;1.20;;;16.00;71.80;;;;;;4845323;29;20133;-76
2022/10/08 06:09:56;;;;;;;7.63;1.10;;;16.00;71.90;;;;;;4847349;29;20469;-75
2022/10/08 06:12:22;;;;;;;8.60;1.45;;;16.00;72.10;;;;;;4831580;29;20053;-76
2022/10/08 06:14:47;;;;;;;2.45;0.90;;;16.00;72.40;;;;;;4847253;29;20097;-76
2022/10/08 06:17:13;;;;;;;9.88;1.58;;;16.10;72.60;;;;;;4847736;29;20049;-75
2022/10/08 06:19:39;;;;;;;9.63;1.67;;;16.10;72.60;;;;;;4831302;29;20137;-75
2022/10/08 06:22:05;;;;;;;8.18;1.50;;;16.10;72.60;;;;;;4847669;29;20057;-76
2022/10/08 06:24:31;;;;;;;7.45;1.40;;;16.10;72.90;;;;;;4846627;29;20061;-76
2022/10/08 06:26:56;;;;;;;7.53;1.58;;;16.20;72.90;;;;;;4846313;29;20057;-74
2022/10/08 06:29:22;;;;;;;8.70;1.25;;;16.10;72.90;;;;;;4844936;29;20046;-75
2022/10/08 06:31:48;;;;;;;7.55;1.10;;;16.10;73.00;;;;;;4830204;29;20054;-74
2022/10/08 06:34:14;;;;;;;8.60;1.00;;;16.10;72.90;;;;;;4830703;29;20054;-75
2022/10/08 06:36:40;;;;;;;7.15;1.15;;;16.10;73.10;;;;;;4846803;29;20049;-74
2022/10/08 06:39:11;;;;;;;6.63;0.80;;;16.10;73.00;;;;;;4830504;29;20471;-75
2022/10/08 06:41:37;;;;;;;6.32;1.38;;;16.10;73.00;;;;;;4846583;29;20054;-75
2022/10/08 06:44:05;;;;;;;6.18;1.23;;;16.10;73.00;;;;;;4846446;29;20054;-75
2022/10/08 06:46:31;;;;;;;8.23;0.98;;;16.00;73.10;;;;;;4847102;29;20154;-76
2022/10/08 06:48:59;;;;;;;11.05;1.08;;;16.10;73.30;;;;;;4847325;29;20050;-76
2022/10/08 06:51:25;;;;;;;4.03;0.90;;;16.10;73.40;;;;;;4830934;29;20054;-77
2022/10/08 06:53:56;;;;;;;6.35;1.27;;;16.10;73.50;;;;;;4830326;29;20465;-75
2022/10/08 06:56:23;;;;;;;6.10;0.90;;;16.10;73.60;;;;;;4846516;29;20058;-75
2022/10/08 06:58:49;;;;;;;4.55;1.00;;;16.10;73.70;;;;;;4830341;29;20087;-78
2022/10/08 07:01:16;;;;;;;6.78;1.00;;;16.10;73.80;;;;;;4846179;29;20057;-76
2022/10/08 07:03:42;;;;;;;6.00;0.70;;;16.10;73.90;;;;;;4830667;29;20065;-76
2022/10/08 07:06:10;;;;;;;4.28;0.70;;;16.20;73.30;;;;;;4815348;29;20054;-77
2022/10/08 07:08:36;;;;;;;5.50;0.57;;;16.30;71.00;;;;;;4830227;29;20481;-76
2022/10/08 07:11:16;;;;;;;3.42;0.70;;;16.20;69.90;;;;;;4830946;29;20046;-75
2022/10/08 07:13:43;;;;;;;4.78;0.80;;;16.20;69.40;;;;;;4830085;29;20053;-77
2022/10/08 07:16:18;;;;;;;3.65;0.70;;;16.10;69.10;;;;;;4829674;29;20128;-76
2022/10/08 07:18:46;;;;;;;15.20;1.20;;;16.10;69.10;;;;;;4828960;29;20157;-78
2022/10/08 07:21:14;;;;;;;10.77;1.45;;;16.10;69.50;;;;;;4846489;29;20049;-69
2022/10/08 07:23:39;;;;;;;18.52;2.25;;;16.00;69.90;;;;;;4846458;29;20049;-77
2022/10/08 07:26:09;;;;;;;9.07;1.35;;;16.10;70.30;;;;;;4846106;29;20049;-79
2022/10/08 07:28:39;;;;;;;10.88;1.17;;;16.10;70.60;;;;;;4846562;29;20358;-73
2022/10/08 07:31:06;;;;;;;9.30;1.77;;;16.20;71.10;;;;;;4829584;29;20207;-75
2022/10/08 07:33:33;;;;;;;14.57;1.58;;;16.20;71.30;;;;;;4845885;29;20523;-75
2022/10/08 07:36:12;;;;;;;10.48;1.52;;;16.20;71.50;;;;;;4846395;29;20095;-74
2022/10/08 07:38:38;;;;;;;16.67;1.92;;;16.30;71.70;;;;;;4845673;29;20058;-74
2022/10/08 07:41:04;;;;;;;16.15;2.08;;;16.30;71.90;;;;;;4846444;29;20486;-73
2022/10/08 07:43:30;;;;;;;13.45;2.38;;;16.30;72.10;;;;;;4850034;29;20049;-74
2022/10/08 07:45:56;;;;;;;11.25;1.35;;;16.40;72.20;;;;;;4863000;29;20042;-75
2022/10/08 07:48:22;;;;;;;17.83;2.03;;;16.40;72.30;;;;;;4863343;29;20050;-74
2022/10/08 07:50:47;;;;;;;10.40;1.90;;;16.40;72.30;;;;;;4863260;29;20061;-76
2022/10/08 07:53:13;;;;;;;9.68;1.50;;;16.40;72.40;;;;;;4863697;29;20050;-75
2022/10/08 07:55:39;;;;;;;15.75;1.90;;;16.40;72.60;;;;;;4847666;29;20088;-75
2022/10/08 07:58:05;;;;;;;7.57;1.85;;;16.40;72.60;;;;;;4863821;29;20166;-78
2022/10/08 08:00:31;;;;;;;10.65;1.73;;;16.40;72.70;;;;;;4863690;29;20049;-75
2022/10/08 08:02:57;;;;;;;17.40;2.08;;;16.50;72.90;;;;;;4864355;29;20045;-77
2022/10/08 08:05:22;;;;;;;11.00;1.65;;;16.50;73.00;;;;;;4863678;29;20471;-76
2022/10/08 08:07:48;;;;;;;13.70;1.60;;;16.50;73.00;;;;;;4863582;29;20125;-72
2022/10/08 08:10:14;;;;;;;13.85;1.92;;;16.50;72.60;;;;;;4863900;29;20117;-77
2022/10/08 08:12:40;;;;;;;9.40;1.15;;;16.60;72.40;;;;;;4863425;29;20500;-78
2022/10/08 08:15:06;;;;;;;12.40;1.17;;;16.60;71.10;;;;;;4864429;29;20449;-74
2022/10/08 08:17:34;;;;;;;11.05;1.38;;;16.50;70.30;;;;;;4863929;29;20045;-75
2022/10/08 08:19:59;;;;;;;9.50;1.88;;;16.50;70.10;;;;;;4863575;29;20049;-76
2022/10/08 08:22:25;;;;;;;11.18;1.30;;;16.60;70.60;;;;;;4863261;29;20053;-74
2022/10/08 08:24:51;;;;;;;10.43;1.50;;;16.60;71.00;;;;;;4863490;29;20194;-78
2022/10/08 08:27:17;;;;;;;9.63;0.95;;;16.60;71.20;;;;;;4852719;29;20198;-75
2022/10/08 08:29:43;;;;;;;13.95;1.50;;;16.60;71.50;;;;;;4833195;29;20046;-77
2022/10/08 08:32:09;;;;;;;10.45;1.10;;;16.60;71.70;;;;;;4832889;29;20072;-75
2022/10/08 08:34:34;;;;;;;8.90;1.40;;;16.60;71.90;;;;;;4821687;29;20133;-76
2022/10/08 08:37:00;;;;;;;14.30;1.55;;;16.60;71.80;;;;;;4840171;29;20140;-73
2022/10/08 08:39:28;;;;;;;9.77;1.10;;;16.60;72.00;;;;;;4843087;29;20038;-79
2022/10/08 08:42:36;;;;;;;6.10;1.33;;;16.60;72.20;;;;;;4826655;29;20046;-77
2022/10/08 08:45:29;;;;;;;6.97;0.80;;;16.60;72.70;;;;;;4813181;29;20054;-78
2022/10/08 08:48:23;;;;;;;9.00;1.38;;;16.60;72.60;;;;;;4826592;29;20054;-79
2022/10/08 08:50:52;;;;;;;7.25;0.90;;;16.60;72.60;;;;;;4824230;29;20073;-77
2022/10/08 08:53:18;;;;;;;6.63;1.30;;;16.60;72.40;;;;;;4840620;29;20049;-79
2022/10/08 08:56:05;;;;;;;7.35;0.98;;;16.60;72.40;;;;;;4828743;29;20054;-80
2022/10/08 08:58:47;;;;;;;6.10;1.50;;;16.70;72.10;;;;;;4828490;29;20516;-78
2022/10/08 09:01:23;;;;;;;5.85;1.05;;;16.70;72.00;;;;;;4813029;29;20053;-79
2022/10/08 09:03:57;;;;;;;10.38;0.90;;;16.70;71.90;;;;;;4828362;29;20513;-79
2022/10/08 09:06:26;;;;;;;8.00;1.65;;;16.70;71.60;;;;;;4844464;29;20042;-79
2022/10/08 09:09:27;;;;;;;7.78;1.48;;;16.70;71.20;;;;;;4813069;29;20081;-79
2022/10/08 09:11:53;;;;;;;8.15;1.50;;;16.80;71.10;;;;;;4827983;29;20113;-79
2022/10/08 09:14:39;;;;;;;5.00;0.82;;;16.80;71.00;;;;;;4826350;29;20042;-78
2022/10/08 09:17:16;;;;;;;6.68;1.10;;;16.80;70.80;;;;;;4836042;29;20058;-75
2022/10/08 09:19:42;;;;;;;6.20;1.60;;;16.80;69.80;;;;;;4844159;29;20082;-79
2022/10/08 09:22:17;;;;;;;4.18;0.80;;;16.80;69.90;;;;;;4838877;29;20042;-77
2022/10/08 09:24:46;;;;;;;18.90;12.95;;;16.80;70.10;;;;;;4833879;29;20050;-78
2022/10/08 09:27:15;;;;;;;47.97;41.78;;;16.80;70.20;;;;;;4844375;29;20461;-80
2022/10/08 09:29:40;;;;;;;128.68;113.40;;;16.80;69.90;;;;;;4844320;29;20057;-76
2022/10/08 09:32:17;;;;;;;52.40;42.13;;;16.90;70.00;;;;;;4833035;29;20099;-76
2022/10/08 09:34:43;;;;;;;17.58;11.80;;;16.90;69.00;;;;;;4799593;29;20122;-74
2022/10/08 09:37:25;;;;;;;15.75;6.82;;;16.90;67.70;;;;;;4823735;29;20053;-74
2022/10/08 09:40:24;;;;;;;6.75;1.52;;;16.90;65.60;;;;;;4825876;29;20533;-74
2022/10/08 09:43:12;;;;;;;8.20;1.70;;;16.80;63.30;;;;;;4794019;29;20123;-74
2022/10/08 09:45:46;;;;;;;7.82;1.08;;;16.80;63.00;;;;;;4829505;29;20137;-74
2022/10/08 09:48:27;;;;;;;7.97;1.10;;;16.80;62.80;;;;;;4833023;29;20080;-69
2022/10/08 09:51:14;;;;;;;8.15;1.73;;;16.80;63.40;;;;;;4855597;29;20054;-71
2022/10/08 09:54:00;;;;;;;6.32;1.45;;;16.90;63.90;;;;;;4827588;29;20061;-73
2022/10/08 09:56:29;;;;;;;7.13;1.10;;;16.90;64.20;;;;;;4837243;29;20064;-74
2022/10/08 09:59:00;;;;;;;12.07;1.48;;;16.90;64.50;;;;;;4845994;29;20061;-77
2022/10/08 10:01:27;;;;;;;9.75;1.35;;;16.90;63.90;;;;;;4843083;29;20059;-76
2022/10/08 10:04:02;;;;;;;9.38;1.33;;;16.90;63.50;;;;;;4831175;29;20065;-77
2022/10/08 10:06:42;;;;;;;6.63;1.60;;;16.90;63.50;;;;;;4820417;29;20054;-73
2022/10/08 10:09:23;;;;;;;9.40;1.23;;;17.00;62.80;;;;;;4828947;29;20057;-74
2022/10/08 10:12:27;;;;;;;6.40;1.83;;;17.00;62.90;;;;;;4827678;29;20411;-75
2022/10/08 10:15:01;;;;;;;6.32;1.35;;;16.90;64.40;;;;;;4829755;29;20054;-78
2022/10/08 10:18:00;;;;;;;7.55;1.10;;;16.80;65.40;;;;;;4828761;29;20054;-75
2022/10/08 10:20:40;;;;;;;5.68;0.98;;;16.80;67.10;;;;;;4831779;29;20423;-78
2022/10/08 10:23:15;;;;;;;6.95;1.35;;;16.80;67.00;;;;;;4815388;29;20496;-76
2022/10/08 10:25:48;;;;;;;10.65;1.17;;;16.70;67.60;;;;;;4833430;29;20083;-75
2022/10/08 10:28:21;;;;;;;8.00;1.60;;;16.80;67.80;;;;;;4840560;29;20125;-77
2022/10/08 10:30:58;;;;;;;4.60;0.90;;;16.80;68.00;;;;;;4828410;29;20054;-76
2022/10/08 10:33:28;;;;;;;6.05;1.17;;;16.80;68.30;;;;;;4844607;29;20058;-79
2022/10/08 10:36:03;;;;;;;8.95;1.80;;;16.80;68.00;;;;;;4831998;29;20056;-77
2022/10/08 10:38:31;;;;;;;12.85;1.25;;;16.90;68.30;;;;;;4828326;29;20117;-75
2022/10/08 10:41:29;;;;;;;6.20;0.90;;;16.90;66.50;;;;;;4845061;29;20071;-76
2022/10/08 10:44:10;;;;;;;8.73;1.38;;;16.90;65.10;;;;;;4813081;29;20053;-79
2022/10/08 10:46:38;;;;;;;9.73;1.20;;;16.90;66.30;;;;;;4828329;29;20046;-74
2022/10/08 10:49:21;;;;;;;8.60;1.20;;;16.90;66.70;;;;;;4828389;29;20073;-75
2022/10/08 10:52:09;;;;;;;4.82;1.05;;;16.90;67.60;;;;;;4828945;29;20123;-74
2022/10/08 10:54:53;;;;;;;7.05;1.08;;;16.90;67.80;;;;;;4827886;29;20093;-76
2022/10/08 10:57:37;;;;;;;5.68;1.25;;;16.90;68.10;;;;;;4830430;29;20082;-74
2022/10/08 11:00:29;;;;;;;;;;;16.90;68.00;;;;;;4821024;29;20046;-76
2022/10/08 11:03:04;;;;;;;3.53;0.88;;;16.90;69.00;;;;;;4831501;29;19924;-77
2022/10/08 11:05:34;;;;;;;8.30;0.90;;;16.90;68.10;;;;;;4846713;29;20065;-75
2022/10/08 11:08:17;;;;;;;6.53;1.02;;;16.90;68.10;;;;;;4846468;29;20114;-76
2022/10/08 11:11:07;;;;;;;4.95;1.30;;;16.90;68.30;;;;;;4846551;29;20524;-74
2022/10/08 11:13:42;;;;;;;6.95;1.00;;;16.90;68.80;;;;;;4846005;29;20050;-77
2022/10/08 11:16:15;;;;;;;3.97;1.00;;;16.90;68.50;;;;;;4830524;29;20050;-74
2022/10/08 11:18:50;;;;;;;5.55;0.80;;;16.90;68.60;;;;;;4836031;29;20068;-73
2022/10/08 11:21:37;;;;;;;3.75;0.75;;;16.90;68.80;;;;;;4815073;29;20501;-75
2022/10/08 11:24:14;;;;;;;2.25;0.55;;;16.90;68.90;;;;;;4845905;29;20064;-76
2022/10/08 11:27:02;;;;;;;5.60;1.33;;;16.90;69.10;;;;;;4830386;29;20454;-76
2022/10/08 11:29:44;;;;;;;5.22;0.80;;;16.90;69.30;;;;;;4829011;29;20084;-76
2022/10/08 11:32:19;;;;;;;4.45;0.98;;;16.90;69.10;;;;;;4827426;29;20058;-74
2022/10/08 11:34:53;;;;;;;3.08;0.43;;;17.00;69.20;;;;;;4827790;29;20068;-76
2022/10/08 11:37:54;;;;;;;;;;;17.00;69.30;;;;;;4812775;29;20131;-76
2022/10/08 11:40:37;;;;;;;5.70;0.80;;;17.00;69.70;;;;;;4779465;30;19936;-75
2022/10/08 11:43:24;;;;;;;3.60;1.25;;;16.90;69.40;;;;;;4828905;29;20359;-76
2022/10/08 11:46:21;;;;;;;3.58;0.65;;;16.90;69.50;;;;;;4845984;29;20062;-76
2022/10/08 11:48:49;;;;;;;4.65;0.77;;;17.00;69.60;;;;;;4846047;29;20434;-76
2022/10/08 11:51:20;;;;;;;2.97;0.68;;;17.00;69.50;;;;;;4846335;29;20068;-75
2022/10/08 11:54:16;;;;;;;4.90;0.75;;;17.00;69.60;;;;;;4846285;29;20445;-75
2022/10/08 11:56:51;;;;;;;2.72;0.68;;;17.00;69.60;;;;;;4827578;29;20066;-76
2022/10/08 11:59:34;;;;;;;5.20;0.88;;;17.00;69.60;;;;;;4839373;29;20106;-76
2022/10/08 12:02:03;;;;;;;2.58;0.65;;;17.00;69.60;;;;;;4832020;29;20127;-75
2022/10/08 12:04:37;;;;;;;3.83;0.60;;;17.00;69.60;;;;;;4827385;29;20443;-75
2022/10/08 12:07:29;;;;;;;4.22;1.05;;;17.00;69.70;;;;;;4827596;29;20463;-77
2022/10/08 12:09:57;;;;;;;2.35;0.50;;;17.00;69.80;;;;;;4804879;29;20108;-75
2022/10/08 12:12:23;;;;;;;3.38;1.02;;;17.00;69.80;;;;;;4812610;29;20137;-74
2022/10/08 12:14:49;;;;;;;2.85;0.63;;;17.00;69.80;;;;;;4827494;29;20133;-74
2022/10/08 12:17:16;;;;;;;3.72;0.57;;;17.00;69.80;;;;;;4811233;29;20064;-75
2022/10/08 12:19:43;;;;;;;4.53;0.90;;;17.00;69.80;;;;;;4827854;29;20047;-75
2022/10/08 12:22:23;;;;;;;4.82;0.55;;;17.00;69.80;;;;;;4826880;29;20069;-76
2022/10/08 12:24:57;;;;;;;7.07;0.60;;;17.10;68.30;;;;;;4827227;29;20133;-74
2022/10/08 12:27:24;;;;;;;;;;;17.00;68.20;;;;;;4836791;29;20347;-74
2022/10/08 12:29:59;;;;;;;6.85;0.98;;;17.00;68.50;;;;;;4832764;29;19924;-76
2022/10/08 12:32:43;;;;;;;13.48;1.88;;;17.00;68.80;;;;;;4826608;29;20416;-75
2022/10/08 12:35:35;;;;;;;11.05;1.75;;;17.00;68.90;;;;;;4838903;29;20093;-74
2022/10/08 12:38:17;;;;;;;9.10;1.40;;;17.00;68.90;;;;;;4826949;29;20068;-74
2022/10/08 12:40:43;;;;;;;5.32;1.38;;;17.00;68.80;;;;;;4827135;29;20054;-76
2022/10/08 12:43:15;;;;;;;4.20;0.70;;;17.00;68.60;;;;;;4827676;29;20477;-77
2022/10/08 12:45:54;;;;;;;5.13;1.13;;;17.10;68.50;;;;;;4826687;29;20131;-75
2022/10/08 12:48:48;;;;;;;7.70;1.30;;;17.10;68.50;;;;;;4827153;29;20047;-74
2022/10/08 12:51:22;;;;;;;10.20;0.98;;;17.10;68.60;;;;;;4812266;29;20072;-75
2022/10/08 12:53:48;;;;;;;6.63;0.80;;;17.10;68.50;;;;;;4828005;29;20057;-73
2022/10/08 12:56:19;;;;;;;9.80;1.23;;;17.10;68.50;;;;;;4830890;29;20129;-74
2022/10/08 12:58:46;;;;;;;5.43;1.20;;;17.10;68.40;;;;;;4845132;29;20050;-74
2022/10/08 13:01:15;;;;;;;5.97;1.08;;;17.10;68.40;;;;;;4844410;29;20056;-73
2022/10/08 13:03:40;;;;;;;7.53;0.93;;;17.10;68.40;;;;;;4844158;29;20127;-76
2022/10/08 13:06:26;;;;;;;12.35;1.17;;;17.10;68.20;;;;;;4836375;29;20050;-73
2022/10/08 13:08:52;;;;;;;6.07;0.85;;;17.10;68.10;;;;;;4826683;29;20350;-74
2022/10/08 13:11:19;;;;;;;6.15;1.30;;;17.10;68.40;;;;;;4826196;29;20054;-73
2022/10/08 13:13:50;;;;;;;6.63;1.05;;;17.10;68.80;;;;;;4811231;29;20145;-74
2022/10/08 13:16:21;;;;;;;6.20;1.25;;;17.10;68.90;;;;;;4809952;29;20476;-75
2022/10/08 13:18:57;;;;;;;6.53;1.17;;;17.10;69.10;;;;;;4809948;29;20093;-74
2022/10/08 13:21:33;;;;;;;7.40;1.30;;;17.20;69.30;;;;;;4826217;29;20077;-76
2022/10/08 13:24:01;;;;;;;13.18;1.40;;;17.10;69.00;;;;;;4826505;29;20134;-74
2022/10/08 13:26:45;;;;;;;9.82;1.48;;;17.10;68.90;;;;;;4827792;29;20058;-76
2022/10/08 13:29:23;;;;;;;4.45;1.00;;;17.10;68.90;;;;;;4842728;29;20373;-75
2022/10/08 13:32:01;;;;;;;10.00;1.58;;;17.10;69.10;;;;;;4836124;29;20104;-72
2022/10/08 13:34:46;;;;;;;11.77;1.25;;;17.10;69.00;;;;;;4826279;29;20054;-75
2022/10/08 13:37:22;;;;;;;11.55;1.92;;;17.10;69.40;;;;;;4833153;29;20474;-73
2022/10/08 13:39:52;;;;;;;10.63;1.45;;;17.20;69.40;;;;;;4809675;29;20058;-74
2022/10/08 13:42:20;;;;;;;9.43;1.27;;;17.20;69.20;;;;;;4826363;29;20066;-75
2022/10/08 13:44:46;;;;;;;11.48;1.58;;;17.20;68.50;;;;;;4810294;29;20072;-76
2022/10/08 13:47:17;;;;;;;9.50;1.10;;;17.20;67.90;;;;;;4825943;29;20050;-75
2022/10/08 13:49:44;;;;;;;6.50;1.35;;;17.20;66.80;;;;;;4809511;29;20058;-75
2022/10/08 13:52:22;;;;;;;9.88;1.10;;;17.10;65.20;;;;;;4825313;29;20093;-75
2022/10/08 13:54:52;;;;;;;6.55;1.15;;;17.10;64.80;;;;;;4824277;29;20091;-73
2022/10/08 13:57:18;;;;;;;8.93;1.23;;;17.00;65.00;;;;;;4831180;29;20126;-73
2022/10/08 13:59:43;;;;;;;12.15;1.58;;;17.00;65.60;;;;;;4827454;29;20042;-75
2022/10/08 14:02:13;;;;;;;5.32;0.90;;;17.00;65.60;;;;;;4840292;29;20049;-74
2022/10/08 14:04:38;;;;;;;8.68;1.52;;;17.00;66.00;;;;;;4843457;29;20065;-74
2022/10/08 14:07:07;;;;;;;8.50;1.40;;;17.00;65.40;;;;;;4811812;29;20083;-77
2022/10/08 14:09:33;;;;;;;4.07;0.70;;;17.00;65.60;;;;;;4843730;29;20136;-73
2022/10/08 14:12:03;;;;;;;8.65;2.03;;;17.00;65.90;;;;;;4827993;29;20133;-72
2022/10/08 14:14:29;;;;;;;10.50;1.67;;;17.00;66.10;;;;;;4842706;29;20061;-74
2022/10/08 14:16:55;;;;;;;10.90;1.70;;;17.10;66.00;;;;;;4843848;29;20102;-77
2022/10/08 14:19:21;;;;;;;8.35;1.23;;;17.10;66.30;;;;;;4826010;29;20058;-73
2022/10/08 14:21:48;;;;;;;11.40;1.67;;;17.10;66.70;;;;;;4825297;29;20465;-78
2022/10/08 14:24:14;;;;;;;9.93;1.13;;;17.10;67.00;;;;;;4843451;29;20049;-74
2022/10/08 14:26:40;;;;;;;7.50;1.17;;;17.10;67.50;;;;;;4843842;29;20350;-74
2022/10/08 14:29:06;;;;;;;7.25;1.15;;;17.20;68.00;;;;;;4845491;29;20050;-76
2022/10/08 14:31:32;;;;;;;10.25;1.52;;;17.20;68.30;;;;;;4816464;29;20058;-74
2022/10/08 14:33:57;;;;;;;5.78;1.00;;;17.20;68.50;;;;;;4828463;29;20073;-76
2022/10/08 14:36:30;;;;;;;9.65;1.30;;;17.20;67.90;;;;;;4816472;29;20050;-78
2022/10/08 14:38:56;;;;;;;11.60;2.57;;;17.10;66.00;;;;;;4840446;29;20077;-77
2022/10/08 14:41:21;;;;;;;10.90;2.28;;;17.10;65.40;;;;;;4828725;29;20150;-74
2022/10/08 14:43:47;;;;;;;11.38;2.70;;;17.10;65.50;;;;;;4828965;29;20133;-75
2022/10/08 14:46:13;;;;;;;8.27;2.30;;;17.10;65.80;;;;;;4828800;29;20050;-74
2022/10/08 14:48:39;;;;;;;9.80;2.45;;;17.10;66.00;;;;;;4828472;29;20050;-75
2022/10/08 14:51:05;;;;;;;13.15;2.40;;;17.10;66.30;;;;;;4828483;29;20519;-75
2022/10/08 14:53:31;;;;;;;12.60;2.75;;;17.10;66.60;;;;;;4834658;29;20096;-79
2022/10/08 14:55:59;;;;;;;8.35;1.42;;;17.20;67.00;;;;;;4846212;29;20475;-81
2022/10/08 14:58:25;;;;;;;10.82;1.27;;;17.10;66.00;;;;;;4830220;29;20053;-75
2022/10/08 15:00:54;;;;;;;9.45;1.48;;;17.10;65.20;;;;;;4846824;29;20053;-74
2022/10/08 15:03:22;;;;;;;11.45;2.28;;;17.10;65.50;;;;;;4830129;29;20056;-78
2022/10/08 15:05:52;;;;;;;7.05;1.00;;;17.00;66.20;;;;;;4830319;29;20085;-77
2022/10/08 15:08:18;;;;;;;7.85;1.33;;;17.00;65.10;;;;;;4830442;29;20068;-76
2022/10/08 15:10:44;;;;;;;7.82;1.60;;;17.00;64.50;;;;;;4830369;29;20049;-76
2022/10/08 15:13:10;;;;;;;7.72;1.13;;;16.90;63.60;;;;;;4846523;29;20100;-72
2022/10/08 15:15:43;;;;;;;12.05;1.45;;;16.90;64.00;;;;;;4846589;29;20058;-72
2022/10/08 15:18:10;;;;;;;7.95;1.00;;;16.90;64.30;;;;;;4846553;29;20507;-72
2022/10/08 15:20:36;;;;;;;6.85;1.35;;;16.90;64.70;;;;;;4846445;29;20133;-72
2022/10/08 15:23:03;;;;;;;11.35;1.45;;;16.90;64.90;;;;;;4844158;29;20062;-73
2022/10/08 15:25:29;;;;;;;7.05;1.33;;;17.00;65.00;;;;;;4811966;29;20058;-72
2022/10/08 15:27:54;;;;;;;5.28;0.85;;;17.00;65.00;;;;;;4827981;29;20118;-72
2022/10/08 15:30:21;;;;;;;15.90;2.00;;;17.00;65.00;;;;;;4828082;29;20050;-73
2022/10/08 15:32:46;;;;;;;22.73;2.45;;;17.10;65.10;;;;;;4828134;29;20078;-75
2022/10/08 15:35:12;;;;;;;15.70;2.55;;;17.10;65.50;;;;;;4827921;29;20058;-75
2022/10/08 15:37:38;;;;;;;10.65;1.52;;;17.00;64.50;;;;;;4827757;29;20054;-72
2022/10/08 15:40:05;;;;;;;10.05;1.98;;;17.00;64.10;;;;;;4827593;29;20056;-73
2022/10/08 15:42:31;;;;;;;10.23;1.88;;;17.00;63.60;;;;;;4827738;29;20052;-73
2022/10/08 15:44:57;;;;;;;12.98;2.55;;;16.90;64.20;;;;;;4827538;29;20118;-75
2022/10/08 15:47:22;;;;;;;15.77;1.42;;;16.90;63.90;;;;;;4827789;29;20498;-73
2022/10/08 15:49:49;;;;;;;8.30;1.65;;;16.90;64.30;;;;;;4827524;29;20054;-73
2022/10/08 15:52:20;;;;;;;15.68;1.65;;;16.90;64.90;;;;;;4827108;29;20062;-72
2022/10/08 15:54:46;;;;;;;12.07;1.52;;;17.00;65.30;;;;;;4825968;29;20446;-73
2022/10/08 15:57:14;;;;;;;13.57;1.60;;;17.00;65.60;;;;;;4845909;29;20133;-73
2022/10/08 15:59:40;;;;;;;9.85;1.50;;;17.00;65.70;;;;;;4845203;29;20057;-73
2022/10/08 16:02:06;;;;;;;9.18;1.33;;;17.10;65.70;;;;;;4842934;29;20446;-73
2022/10/08 16:04:32;;;;;;;7.85;1.30;;;17.10;65.60;;;;;;4843862;29;20102;-73
2022/10/08 16:06:58;;;;;;;9.93;1.48;;;17.10;65.30;;;;;;4843449;29;20050;-74
2022/10/08 16:09:24;;;;;;;8.35;0.90;;;17.10;65.20;;;;;;4844782;29;20048;-73
2022/10/08 16:11:50;;;;;;;11.68;1.83;;;17.10;65.40;;;;;;4845452;29;20054;-73
2022/10/08 18:06:18;;;;;;;4.75;1.27;;;17.20;67.60;;;;;;4790030;30;20065;-75
2022/10/08 18:08:45;;;;;;;5.38;1.23;;;17.30;67.70;;;;;;4793007;29;20055;-74
2022/10/08 18:11:13;;;;;;;9.38;1.17;;;17.30;67.90;;;;;;4788340;29;20066;-74
2022/10/08 18:13:39;;;;;;;4.53;0.95;;;17.30;68.00;;;;;;4790121;29;20055;-74
2022/10/08 18:16:07;;;;;;;6.63;1.95;;;17.30;68.10;;;;;;4807719;29;20070;-77
2022/10/08 18:18:33;;;;;;;9.40;1.42;;;17.30;68.10;;;;;;4793410;30;20047;-78
2022/10/08 18:21:00;;;;;;;6.28;1.35;;;17.30;68.10;;;;;;4797653;29;20474;-78
2022/10/08 18:23:31;;;;;;;5.55;1.35;;;17.30;68.10;;;;;;4793648;29;20055;-78
2022/10/08 18:26:31;;;;;;;5.82;1.42;;;17.30;68.20;;;;;;4792780;30;20051;-76
2022/10/08 18:28:58;;;;;;;6.90;1.40;;;17.30;68.30;;;;;;4792651;29;20061;-73
2022/10/08 18:31:27;;;;;;;9.27;1.13;;;17.30;68.30;;;;;;4792868;29;20094;-77
2022/10/08 18:33:58;;;;;;;4.18;1.50;;;17.40;68.30;;;;;;4806896;29;20052;-77
2022/10/08 18:36:27;;;;;;;5.72;1.55;;;17.40;68.40;;;;;;4768925;30;20060;-76
2022/10/08 18:39:03;;;;;;;5.90;1.65;;;17.40;68.50;;;;;;4783364;30;20051;-78
2022/10/08 18:41:32;;;;;;;12.50;1.60;;;17.40;68.40;;;;;;4792444;30;20120;-78
2022/10/08 18:43:59;;;;;;;4.90;1.50;;;17.40;68.40;;;;;;4792808;30;20417;-78
2022/10/08 18:46:26;;;;;;;7.43;1.98;;;17.40;68.50;;;;;;4793200;30;20063;-78
2022/10/08 18:48:53;;;;;;;4.93;1.60;;;17.40;68.50;;;;;;4783646;30;20054;-78
2022/10/08 18:51:22;;;;;;;8.93;1.65;;;17.40;68.60;;;;;;4795356;29;20056;-79
2022/10/08 18:53:49;;;;;;;6.20;1.75;;;17.30;68.50;;;;;;4801357;29;20062;-77
2022/10/08 18:56:16;;;;;;;4.55;1.70;;;17.40;68.70;;;;;;4808667;29;20487;-79
2022/10/08 18:58:42;;;;;;;6.10;1.58;;;17.40;68.80;;;;;;4792423;29;20044;-81
2022/10/08 19:01:16;;;;;;;6.05;1.23;;;17.40;69.00;;;;;;4792420;30;20484;-80
2022/10/08 19:03:53;;;;;;;8.23;1.70;;;17.40;69.50;;;;;;4807133;29;20055;-79
2022/10/08 19:06:21;;;;;;;5.00;1.58;;;17.40;69.50;;;;;;4791920;30;20055;-76
2022/10/08 19:08:47;;;;;;;4.38;1.40;;;17.40;69.50;;;;;;4796766;29;20386;-76
2022/10/08 19:11:19;;;;;;;4.03;1.23;;;17.40;69.60;;;;;;4810274;29;20058;-76
2022/10/08 19:13:46;;;;;;;4.88;1.67;;;17.40;69.90;;;;;;4809859;29;20363;-77
2022/10/08 19:16:14;;;;;;;6.32;2.00;;;17.40;69.80;;;;;;4810119;29;20058;-74
2022/10/08 19:18:50;;;;;;;7.15;1.90;;;17.50;70.60;;;;;;4809930;29;20054;-79
2022/10/08 19:21:16;;;;;;;3.72;1.23;;;17.50;70.90;;;;;;4810219;29;20061;-79
2022/10/08 19:23:42;;;;;;;5.47;1.67;;;17.50;70.70;;;;;;4810311;29;20366;-75
2022/10/08 19:26:08;;;;;;;5.57;1.83;;;17.50;70.90;;;;;;4810228;29;20138;-78
2022/10/08 19:28:38;;;;;;;5.88;1.58;;;17.50;71.30;;;;;;4794108;29;20055;-78
2022/10/08 19:31:21;;;;;;;4.45;1.52;;;17.50;71.20;;;;;;4806575;29;20063;-75
2022/10/08 19:33:48;;;;;;;5.10;1.67;;;17.50;71.20;;;;;;4794638;29;20466;-76
2022/10/08 19:36:15;;;;;;;5.50;1.67;;;17.50;71.00;;;;;;4795521;29;20051;-75
2022/10/08 19:38:41;;;;;;;4.55;1.45;;;17.50;71.10;;;;;;4803194;29;20374;-76
2022/10/08 19:41:08;;;;;;;4.97;1.60;;;17.50;70.90;;;;;;4809725;29;20047;-76
2022/10/08 19:43:34;;;;;;;5.28;1.20;;;17.50;70.80;;;;;;4790617;30;20463;-77
2022/10/08 19:46:02;;;;;;;5.22;1.25;;;17.50;70.90;;;;;;4791597;29;20057;-76
2022/10/08 19:48:28;;;;;;;6.18;1.73;;;17.50;70.90;;;;;;4791564;29;20098;-75
2022/10/08 19:50:54;;;;;;;7.57;1.70;;;17.50;70.70;;;;;;4790514;30;20047;-76
2022/10/08 19:53:19;;;;;;;5.38;1.80;;;17.50;70.60;;;;;;4790603;30;20065;-75
2022/10/08 19:55:45;;;;;;;6.03;1.42;;;17.50;70.70;;;;;;4809383;29;20050;-75
2022/10/08 19:58:11;;;;;;;7.85;1.70;;;17.50;70.60;;;;;;4810185;29;20050;-77
2022/10/08 20:00:37;;;;;;;8.77;2.13;;;17.50;70.70;;;;;;4809160;29;20351;-77
2022/10/08 20:03:03;;;;;;;8.80;1.30;;;17.50;70.60;;;;;;4809132;29;20055;-77
2022/10/08 20:05:31;;;;;;;7.10;1.65;;;17.60;70.60;;;;;;4808738;29;20102;-76
2022/10/08 20:07:57;;;;;;;4.65;1.40;;;17.50;70.50;;;;;;4809360;29;20082;-75
2022/10/08 20:10:22;;;;;;;5.68;1.45;;;17.60;70.60;;;;;;4793164;29;20470;-77
2022/10/08 20:12:48;;;;;;;6.03;1.42;;;17.60;70.60;;;;;;4808581;29;20061;-76
2022/10/08 20:15:14;;;;;;;5.43;0.98;;;17.60;70.60;;;;;;4808953;29;20057;-77
2022/10/08 20:17:40;;;;;;;5.13;0.90;;;17.60;70.60;;;;;;4809113;29;20129;-77
2022/10/08 20:20:06;;;;;;;3.63;1.00;;;17.60;70.60;;;;;;4809675;29;20451;-76
2022/10/08 20:22:31;;;;;;;3.85;1.10;;;17.60;70.60;;;;;;4808912;29;20066;-76
2022/10/08 20:24:57;;;;;;;5.18;1.60;;;17.60;70.50;;;;;;4809073;29;20050;-75
2022/10/08 20:27:23;;;;;;;5.45;1.30;;;17.60;70.50;;;;;;4792585;29;20088;-76